createdAt,value
2017-08-14T00:00:22.036Z,1023.2
2017-08-14T00:01:21.599Z,1023.2
2017-08-14T00:02:20.784Z,1023.1
2017-08-14T00:03:19.964Z,1023.1
2017-08-14T00:04:18.908Z,1023.1
2017-08-14T00:05:18.475Z,1023.2
2017-08-14T00:05:48.975Z,1023.2
2017-08-14T00:06:19.477Z,1023.1
2017-08-14T00:06:50.008Z,1023.1
2017-08-14T00:07:20.536Z,1023.1
2017-08-14T00:07:50.787Z,1023.1
2017-08-14T00:09:14.908Z,1023.1
2017-08-14T00:10:14.083Z,1023.1
2017-08-14T00:11:13.529Z,1023.1
2017-08-14T00:12:12.591Z,1023.1
2017-08-14T00:13:11.656Z,1023.1
2017-08-14T00:14:10.876Z,1023.1
2017-08-14T00:15:10.068Z,1023.1
2017-08-14T00:16:09.250Z,1023.1
2017-08-14T00:17:08.431Z,1023.1
2017-08-14T00:17:38.809Z,1023.1
2017-08-14T00:18:09.198Z,1023.1
2017-08-14T00:18:39.467Z,1023.1
2017-08-14T00:19:09.855Z,1023.1
2017-08-14T00:20:06.013Z,1023.1
2017-08-14T00:21:05.580Z,1023.1
2017-08-14T00:22:04.765Z,1023.1
2017-08-14T00:23:03.837Z,1023.1
2017-08-14T00:25:02.295Z,1023.1
2017-08-14T00:26:01.620Z,1023.1
2017-08-14T00:27:00.807Z,1023.1
2017-08-14T00:28:00.003Z,1023.1
2017-08-14T00:28:59.196Z,1023.1
2017-08-14T00:29:58.258Z,1023.1
2017-08-14T00:30:57.447Z,1023
2017-08-14T00:31:56.531Z,1023.1
2017-08-14T00:32:55.718Z,1023.1
2017-08-14T00:33:54.784Z,1023.1
2017-08-14T00:34:54.348Z,1023.1
2017-08-14T00:35:53.288Z,1023
2017-08-14T00:36:52.475Z,1023.1
2017-08-14T00:37:22.959Z,1023.1
2017-08-14T00:38:51.222Z,1023.1
2017-08-14T00:39:50.295Z,1023.1
2017-08-14T00:40:49.232Z,1023.1
2017-08-14T00:41:48.409Z,1023.1
2017-08-14T00:42:47.602Z,1023.1
2017-08-14T00:43:46.777Z,1023.1
2017-08-14T00:44:46.350Z,1023.1
2017-08-14T00:45:45.546Z,1023.2
2017-08-14T00:46:44.610Z,1023.2
2017-08-14T00:47:43.558Z,1023.2
2017-08-14T00:48:42.743Z,1023.2
2017-08-14T00:49:41.933Z,1023.2
2017-08-14T00:50:41.116Z,1023.1
2017-08-14T00:51:40.300Z,1023.1
2017-08-14T00:52:39.858Z,1023.1
2017-08-14T00:53:38.707Z,1023.1
2017-08-14T00:54:37.922Z,1023.2
2017-08-14T00:55:37.083Z,1023.2
2017-08-14T00:56:36.522Z,1023.1
2017-08-14T00:57:35.710Z,1023.2
2017-08-14T00:58:34.895Z,1023.2
2017-08-14T00:59:34.095Z,1023.2
2017-08-14T01:00:33.273Z,1023.2
2017-08-14T01:01:32.341Z,1023.2
2017-08-14T01:02:31.549Z,1023.2
2017-08-14T01:03:30.735Z,1023.2
2017-08-14T01:04:29.911Z,1023.2
2017-08-14T01:05:29.090Z,1023.2
2017-08-14T01:06:28.267Z,1023.2
2017-08-14T01:07:27.831Z,1023.2
2017-08-14T01:08:27.031Z,1023.2
2017-08-14T01:09:25.979Z,1023.2
2017-08-14T01:10:25.432Z,1023.2
2017-08-14T01:11:24.476Z,1023.2
2017-08-14T01:12:23.545Z,1023.2
2017-08-14T01:12:54.190Z,1023.2
2017-08-14T01:13:24.688Z,1023.2
2017-08-14T01:13:55.186Z,1023.2
2017-08-14T01:15:21.422Z,1023.2
2017-08-14T01:16:20.601Z,1023.2
2017-08-14T01:17:19.678Z,1023.3
2017-08-14T01:18:18.865Z,1023.3
2017-08-14T01:19:17.918Z,1023.3
2017-08-14T01:20:16.987Z,1023.2
2017-08-14T01:21:16.562Z,1023.2
2017-08-14T01:22:15.609Z,1023.2
2017-08-14T01:23:14.679Z,1023.3
2017-08-14T01:24:13.880Z,1023.3
2017-08-14T01:25:13.069Z,1023.3
2017-08-14T01:26:12.251Z,1023.3
2017-08-14T01:27:11.447Z,1023.3
2017-08-14T01:28:10.653Z,1023.4
2017-08-14T01:29:09.725Z,1023.3
2017-08-14T01:30:08.903Z,1023.3
2017-08-14T01:31:08.102Z,1023.3
2017-08-14T01:32:07.547Z,1023.3
2017-08-14T01:33:06.487Z,1023.3
2017-08-14T01:34:05.926Z,1023.3
2017-08-14T01:35:05.110Z,1023.3
2017-08-14T01:37:03.189Z,1023.3
2017-08-14T01:38:02.368Z,1023.3
2017-08-14T01:39:01.941Z,1023.3
2017-08-14T01:40:01.018Z,1023.3
2017-08-14T01:41:00.093Z,1023.3
2017-08-14T01:41:59.288Z,1023.3
2017-08-14T01:42:58.478Z,1023.3
2017-08-14T01:43:57.659Z,1023.3
2017-08-14T01:44:56.840Z,1023.3
2017-08-14T01:45:27.491Z,1023.3
2017-08-14T01:45:57.862Z,1023.3
2017-08-14T01:46:55.417Z,1023.3
2017-08-14T01:47:54.491Z,1023.3
2017-08-14T01:48:53.560Z,1023.3
2017-08-14T01:49:52.622Z,1023.4
2017-08-14T01:50:51.812Z,1023.3
2017-08-14T01:52:50.391Z,1023.3
2017-08-14T01:53:20.643Z,1023.3
2017-08-14T01:54:48.792Z,1023.3
2017-08-14T01:55:47.858Z,1023.3
2017-08-14T01:56:47.046Z,1023.3
2017-08-14T01:57:46.112Z,1023.3
2017-08-14T01:58:45.310Z,1023.3
2017-08-14T01:59:44.498Z,1023.3
2017-08-14T02:00:43.684Z,1023.3
2017-08-14T02:01:42.864Z,1023.3
2017-08-14T02:02:42.325Z,1023.3
2017-08-14T02:03:41.526Z,1023.3
2017-08-14T02:04:40.719Z,1023.3
2017-08-14T02:05:39.794Z,1023.3
2017-08-14T02:06:10.057Z,1023.3
2017-08-14T02:06:40.564Z,1023.3
2017-08-14T02:07:38.116Z,1023.3
2017-08-14T02:08:37.562Z,1023.3
2017-08-14T02:09:36.516Z,1023.3
2017-08-14T02:10:35.588Z,1023.3
2017-08-14T02:11:34.770Z,1023.3
2017-08-14T02:12:33.951Z,1023.3
2017-08-14T02:13:33.012Z,1023.3
2017-08-14T02:14:32.195Z,1023.3
2017-08-14T02:15:31.385Z,1023.3
2017-08-14T02:16:30.577Z,1023.3
2017-08-14T02:17:29.774Z,1023.3
2017-08-14T02:18:28.955Z,1023.2
2017-08-14T02:19:40.871Z,1023.2
2017-08-14T02:20:27.481Z,1023.3
2017-08-14T02:21:26.560Z,1023.3
2017-08-14T02:22:25.906Z,1023.3
2017-08-14T02:23:25.110Z,1023.3
2017-08-14T02:23:55.653Z,1023.3
2017-08-14T02:24:26.033Z,1023.3
2017-08-14T02:24:56.531Z,1023.3
2017-08-14T02:25:27.043Z,1023.3
2017-08-14T02:25:57.438Z,1023.3
2017-08-14T02:27:21.803Z,1023.3
2017-08-14T02:28:20.991Z,1023.3
2017-08-14T02:29:20.063Z,1023.3
2017-08-14T02:30:19.258Z,1023.3
2017-08-14T02:31:18.707Z,1023.3
2017-08-14T02:32:17.906Z,1023.3
2017-08-14T02:33:16.990Z,1023.3
2017-08-14T02:34:16.188Z,1023.3
2017-08-14T02:35:15.403Z,1023.3
2017-08-14T02:36:14.488Z,1023.3
2017-08-14T02:37:13.557Z,1023.2
2017-08-14T02:38:12.650Z,1023.3
2017-08-14T02:39:11.861Z,1023.3
2017-08-14T02:40:11.070Z,1023.3
2017-08-14T02:41:10.274Z,1023.3
2017-08-14T02:42:09.466Z,1023.3
2017-08-14T02:43:08.663Z,1023.2
2017-08-14T02:44:07.841Z,1023.2
2017-08-14T02:46:06.422Z,1023.2
2017-08-14T02:47:05.628Z,1023.2
2017-08-14T02:48:04.821Z,1023.3
2017-08-14T02:49:04.009Z,1023.3
2017-08-14T02:50:03.200Z,1023.2
2017-08-14T02:51:02.290Z,1023.2
2017-08-14T02:52:01.511Z,1023.3
2017-08-14T02:53:00.576Z,1023.2
2017-08-14T02:53:59.762Z,1023.2
2017-08-14T02:54:58.965Z,1023.2
2017-08-14T02:55:58.042Z,1023.3
2017-08-14T02:56:57.242Z,1023.3
2017-08-14T02:57:56.437Z,1023.3
2017-08-14T02:58:55.638Z,1023.3
2017-08-14T02:59:54.839Z,1023.3
2017-08-14T03:00:25.353Z,1023.3
2017-08-14T03:00:55.851Z,1023.3
2017-08-14T03:01:52.918Z,1023.2
2017-08-14T03:02:52.103Z,1023.3
2017-08-14T03:03:51.316Z,1023.3
2017-08-14T03:04:50.501Z,1023.3
2017-08-14T03:05:50.080Z,1023.3
2017-08-14T03:06:48.800Z,1023.3
2017-08-14T03:07:48.001Z,1023.3
2017-08-14T03:08:47.568Z,1023.3
2017-08-14T03:09:46.528Z,1023.3
2017-08-14T03:10:45.600Z,1023.4
2017-08-14T03:11:44.784Z,1023.3
2017-08-14T03:12:44.118Z,1023.4
2017-08-14T03:13:43.307Z,1023.4
2017-08-14T03:14:42.493Z,1023.4
2017-08-14T03:15:41.670Z,1023.3
2017-08-14T03:16:40.745Z,1023.4
2017-08-14T03:17:39.942Z,1023.4
2017-08-14T03:18:39.002Z,1023.4
2017-08-14T03:19:38.465Z,1023.4
2017-08-14T03:20:08.978Z,1023.4
2017-08-14T03:20:39.478Z,1023.4
2017-08-14T03:21:36.812Z,1023.4
2017-08-14T03:22:35.897Z,1023.4
2017-08-14T03:23:34.854Z,1023.4
2017-08-14T03:24:34.061Z,1023.4
2017-08-14T03:25:33.258Z,1023.4
2017-08-14T03:26:32.443Z,1023.4
2017-08-14T03:27:32.023Z,1023.4
2017-08-14T03:28:30.719Z,1023.3
2017-08-14T03:29:29.908Z,1023.3
2017-08-14T03:30:29.114Z,1023.4
2017-08-14T03:30:59.522Z,1023.4
2017-08-14T03:31:30.050Z,1023.4
2017-08-14T03:32:00.574Z,1023.4
2017-08-14T03:33:26.961Z,1023.4
2017-08-14T03:34:25.905Z,1023.4
2017-08-14T03:35:25.098Z,1023.4
2017-08-14T03:36:24.567Z,1023.4
2017-08-14T03:37:23.762Z,1023.4
2017-08-14T03:38:22.736Z,1023.4
2017-08-14T03:39:21.807Z,1023.4
2017-08-14T03:40:20.882Z,1023.3
2017-08-14T03:41:20.456Z,1023.4
2017-08-14T03:42:19.292Z,1023.4
2017-08-14T03:43:18.759Z,1023.4
2017-08-14T03:44:17.732Z,1023.3
2017-08-14T03:45:16.931Z,1023.3
2017-08-14T03:46:16.115Z,1023.3
2017-08-14T03:47:15.188Z,1023.3
2017-08-14T03:48:14.399Z,1023.3
2017-08-14T03:49:13.582Z,1023.3
2017-08-14T03:50:12.771Z,1023.3
2017-08-14T03:51:11.845Z,1023.3
2017-08-14T03:52:11.305Z,1023.3
2017-08-14T03:53:10.512Z,1023.4
2017-08-14T03:53:40.901Z,1023.4
2017-08-14T03:54:11.408Z,1023.3
2017-08-14T03:55:08.594Z,1023.3
2017-08-14T03:56:08.052Z,1023.3
2017-08-14T03:57:07.009Z,1023.3
2017-08-14T03:58:06.078Z,1023.4
2017-08-14T03:59:05.158Z,1023.4
2017-08-14T04:00:04.349Z,1023.3
2017-08-14T04:01:03.543Z,1023.4
2017-08-14T04:02:03.123Z,1023.4
2017-08-14T04:03:02.199Z,1023.4
2017-08-14T04:04:01.403Z,1023.4
2017-08-14T04:05:00.604Z,1023.4
2017-08-14T04:05:59.792Z,1023.4
2017-08-14T04:06:58.507Z,1023.4
2017-08-14T04:07:57.699Z,1023.4
2017-08-14T04:08:57.265Z,1023.4
2017-08-14T04:09:27.767Z,1023.4
2017-08-14T04:09:58.153Z,1023.4
2017-08-14T04:10:28.553Z,1023.4
2017-08-14T04:10:59.054Z,1023.5
2017-08-14T04:11:29.550Z,1023.5
2017-08-14T04:12:00.055Z,1023.5
2017-08-14T04:12:30.457Z,1023.5
2017-08-14T04:13:00.962Z,1023.5
2017-08-14T04:13:31.475Z,1023.5
2017-08-14T04:14:52.320Z,1023.5
2017-08-14T04:15:51.510Z,1023.5
2017-08-14T04:16:50.351Z,1023.5
2017-08-14T04:17:49.550Z,1023.5
2017-08-14T04:18:48.746Z,1023.5
2017-08-14T04:19:47.828Z,1023.6
2017-08-14T04:20:47.026Z,1023.5
2017-08-14T04:21:46.102Z,1023.5
2017-08-14T04:22:45.297Z,1023.5
2017-08-14T04:23:15.809Z,1023.5
2017-08-14T04:23:46.319Z,1023.5
2017-08-14T04:24:43.893Z,1023.6
2017-08-14T04:25:43.085Z,1023.6
2017-08-14T04:27:41.433Z,1023.6
2017-08-14T04:28:40.629Z,1023.6
2017-08-14T04:29:39.696Z,1023.6
2017-08-14T04:30:38.678Z,1023.6
2017-08-14T04:31:37.883Z,1023.6
2017-08-14T04:33:36.224Z,1023.6
2017-08-14T04:34:35.412Z,1023.6
2017-08-14T04:35:34.592Z,1023.7
2017-08-14T04:36:33.684Z,1023.6
2017-08-14T04:37:32.891Z,1023.7
2017-08-14T04:38:31.964Z,1023.6
2017-08-14T04:39:31.161Z,1023.6
2017-08-14T04:40:30.752Z,1023.7
2017-08-14T04:41:29.934Z,1023.6
2017-08-14T04:42:28.639Z,1023.7
2017-08-14T04:43:28.221Z,1023.6
2017-08-14T04:44:27.294Z,1023.6
2017-08-14T04:45:26.256Z,1023.6
2017-08-14T04:46:25.280Z,1023.7
2017-08-14T04:47:24.475Z,1023.7
2017-08-14T04:48:23.696Z,1023.6
2017-08-14T04:49:22.882Z,1023.6
2017-08-14T04:50:22.109Z,1023.7
2017-08-14T04:51:21.296Z,1023.7
2017-08-14T04:52:20.367Z,1023.7
2017-08-14T04:53:19.566Z,1023.6
2017-08-14T04:54:18.753Z,1023.7
2017-08-14T04:55:17.944Z,1023.7
2017-08-14T04:56:17.142Z,1023.7
2017-08-14T04:57:16.233Z,1023.7
2017-08-14T04:58:15.416Z,1023.7
2017-08-14T04:59:14.620Z,1023.7
2017-08-14T05:00:13.829Z,1023.8
2017-08-14T05:01:13.033Z,1023.7
2017-08-14T05:02:12.109Z,1023.7
2017-08-14T05:03:11.300Z,1023.7
2017-08-14T05:04:10.490Z,1023.7
2017-08-14T05:05:09.690Z,1023.6
2017-08-14T05:06:08.885Z,1023.6
2017-08-14T05:07:07.967Z,1023.6
2017-08-14T05:08:07.036Z,1023.7
2017-08-14T05:09:06.612Z,1023.7
2017-08-14T05:10:05.792Z,1023.7
2017-08-14T05:11:04.879Z,1023.7
2017-08-14T05:12:03.959Z,1023.7
2017-08-14T05:13:03.020Z,1023.7
2017-08-14T05:14:02.229Z,1023.7
2017-08-14T05:15:01.293Z,1023.7
2017-08-14T05:16:00.501Z,1023.7
2017-08-14T05:16:59.696Z,1023.8
2017-08-14T05:17:30.094Z,1023.8
2017-08-14T05:18:00.763Z,1023.7
2017-08-14T05:18:31.266Z,1023.7
2017-08-14T05:19:01.775Z,1023.7
2017-08-14T05:19:57.432Z,1023.8
2017-08-14T05:20:56.612Z,1023.8
2017-08-14T05:21:55.677Z,1023.8
2017-08-14T05:22:54.875Z,1023.8
2017-08-14T05:23:54.059Z,1023.8
2017-08-14T05:24:53.138Z,1023.8
2017-08-14T05:25:52.246Z,1023.9
2017-08-14T05:26:51.316Z,1023.9
2017-08-14T05:27:50.521Z,1023.9
2017-08-14T05:28:49.729Z,1023.9
2017-08-14T05:29:48.910Z,1023.9
2017-08-14T05:30:47.979Z,1023.9
2017-08-14T05:31:47.171Z,1023.9
2017-08-14T05:32:46.367Z,1023.9
2017-08-14T05:33:45.834Z,1023.9
2017-08-14T05:34:44.713Z,1023.8
2017-08-14T05:35:43.809Z,1023.9
2017-08-14T05:36:43.380Z,1023.8
2017-08-14T05:37:42.576Z,1023.8
2017-08-14T05:38:41.765Z,1023.8
2017-08-14T05:39:40.946Z,1023.8
2017-08-14T05:41:38.928Z,1023.7
2017-08-14T05:42:37.999Z,1023.8
2017-08-14T05:43:37.193Z,1023.8
2017-08-14T05:44:36.382Z,1023.8
2017-08-14T05:45:35.950Z,1023.8
2017-08-14T05:46:35.152Z,1023.9
2017-08-14T05:47:33.848Z,1023.8
2017-08-14T05:48:33.043Z,1023.9
2017-08-14T05:49:32.619Z,1023.8
2017-08-14T05:50:31.808Z,1023.8
2017-08-14T05:51:31.000Z,1023.8
2017-08-14T05:52:30.077Z,1023.8
2017-08-14T05:53:29.153Z,1023.8
2017-08-14T05:54:28.218Z,1023.8
2017-08-14T05:55:27.402Z,1023.8
2017-08-14T05:55:57.684Z,1023.8
2017-08-14T05:56:28.191Z,1023.8
2017-08-14T05:56:58.581Z,1023.8
2017-08-14T05:57:29.085Z,1023.8
2017-08-14T05:57:59.600Z,1023.8
2017-08-14T05:59:24.454Z,1023.8
2017-08-14T06:01:22.418Z,1023.8
2017-08-14T06:02:21.514Z,1023.8
2017-08-14T06:03:21.101Z,1023.8
2017-08-14T06:05:19.458Z,1023.8
2017-08-14T06:06:18.643Z,1023.8
2017-08-14T06:07:17.833Z,1023.8
2017-08-14T06:07:48.111Z,1023.8
2017-08-14T06:08:18.637Z,1023.8
2017-08-14T06:08:49.136Z,1023.8
2017-08-14T06:09:19.503Z,1023.8
2017-08-14T06:09:49.769Z,1023.8
2017-08-14T06:11:14.526Z,1023.9
2017-08-14T06:12:13.607Z,1023.8
2017-08-14T06:13:12.545Z,1023.9
2017-08-14T06:15:11.127Z,1023.9
2017-08-14T06:16:10.310Z,1023.9
2017-08-14T06:17:09.499Z,1023.9
2017-08-14T06:18:08.695Z,1023.9
2017-08-14T06:19:07.664Z,1023.9
2017-08-14T06:20:06.752Z,1023.9
2017-08-14T06:21:06.337Z,1023.9
2017-08-14T06:22:05.522Z,1023.8
2017-08-14T06:23:04.711Z,1023.9
2017-08-14T06:24:03.907Z,1023.8
2017-08-14T06:25:03.097Z,1023.8
2017-08-14T06:26:02.190Z,1023.9
2017-08-14T06:27:01.385Z,1023.9
2017-08-14T06:27:31.882Z,1023.9
2017-08-14T06:28:59.650Z,1023.9
2017-08-14T06:29:58.856Z,1023.8
2017-08-14T06:30:58.048Z,1023.8
2017-08-14T06:31:57.248Z,1023.8
2017-08-14T06:32:56.452Z,1023.8
2017-08-14T06:33:55.525Z,1023.8
2017-08-14T06:34:54.752Z,1023.9
2017-08-14T06:35:53.837Z,1023.9
2017-08-14T06:36:53.324Z,1023.9
2017-08-14T06:37:52.410Z,1023.9
2017-08-14T06:38:51.479Z,1023.9
2017-08-14T06:39:50.672Z,1023.9
2017-08-14T06:40:49.750Z,1023.9
2017-08-14T06:41:49.210Z,1023.9
2017-08-14T06:43:47.685Z,1023.9
2017-08-14T06:44:46.759Z,1023.9
2017-08-14T06:45:45.953Z,1023.9
2017-08-14T06:46:45.139Z,1023.9
2017-08-14T06:47:44.209Z,1023.9
2017-08-14T06:48:43.409Z,1023.9
2017-08-14T06:49:13.903Z,1023.9
2017-08-14T06:49:44.418Z,1023.9
2017-08-14T06:50:42.077Z,1023.9
2017-08-14T06:51:41.265Z,1024
2017-08-14T06:52:40.211Z,1024
2017-08-14T06:53:39.580Z,1024
2017-08-14T06:55:38.051Z,1024
2017-08-14T06:56:37.258Z,1024
2017-08-14T06:57:36.331Z,1024
2017-08-14T06:58:35.522Z,1024
2017-08-14T06:59:34.598Z,1024
2017-08-14T07:00:33.787Z,1024
2017-08-14T07:01:32.978Z,1024
2017-08-14T07:02:32.155Z,1024
2017-08-14T07:03:31.342Z,1024
2017-08-14T07:04:30.544Z,1024
2017-08-14T07:05:30.111Z,1024
2017-08-14T07:06:28.823Z,1024
2017-08-14T07:07:28.519Z,1024
2017-08-14T07:08:27.727Z,1024.1
2017-08-14T07:09:26.809Z,1024
2017-08-14T07:10:26.016Z,1024
2017-08-14T07:11:25.200Z,1024
2017-08-14T07:12:24.278Z,1024
2017-08-14T07:13:23.732Z,1024
2017-08-14T07:14:22.574Z,1024
2017-08-14T07:15:21.710Z,1024.1
2017-08-14T07:16:21.290Z,1024.1
2017-08-14T07:17:20.479Z,1024.1
2017-08-14T07:18:19.675Z,1024.1
2017-08-14T07:19:18.739Z,1024.1
2017-08-14T07:20:17.814Z,1024.1
2017-08-14T07:21:17.011Z,1024.1
2017-08-14T07:22:16.217Z,1024.1
2017-08-14T07:23:15.403Z,1024.1
2017-08-14T07:24:14.606Z,1024.1
2017-08-14T07:25:14.182Z,1024.1
2017-08-14T07:26:13.364Z,1024.1
2017-08-14T07:27:12.584Z,1024.1
2017-08-14T07:28:11.773Z,1024.1
2017-08-14T07:29:10.863Z,1024
2017-08-14T07:30:10.063Z,1024
2017-08-14T07:31:09.521Z,1024.1
2017-08-14T07:32:08.360Z,1024
2017-08-14T07:33:07.954Z,1024.1
2017-08-14T07:33:38.458Z,1024.1
2017-08-14T07:34:08.834Z,1024.1
2017-08-14T07:34:39.087Z,1024.1
2017-08-14T07:35:09.415Z,1024
2017-08-14T07:35:39.803Z,1024
2017-08-14T07:37:04.579Z,1024.1
2017-08-14T07:38:03.765Z,1024
2017-08-14T07:39:02.862Z,1024
2017-08-14T07:40:02.326Z,1024
2017-08-14T07:41:01.507Z,1024.1
2017-08-14T07:42:00.568Z,1024.1
2017-08-14T07:42:59.764Z,1024.1
2017-08-14T07:43:59.246Z,1024.1
2017-08-14T07:44:58.442Z,1024.1
2017-08-14T07:45:57.507Z,1024.1
2017-08-14T07:46:57.084Z,1024.1
2017-08-14T07:47:56.144Z,1024.1
2017-08-14T07:48:55.339Z,1024.1
2017-08-14T07:49:54.528Z,1024.1
2017-08-14T07:50:53.721Z,1024.1
2017-08-14T07:51:52.815Z,1024
2017-08-14T07:52:52.279Z,1024
2017-08-14T07:53:51.480Z,1024.1
2017-08-14T07:54:50.563Z,1024.1
2017-08-14T07:56:49.010Z,1024.1
2017-08-14T07:57:48.205Z,1024
2017-08-14T07:58:47.405Z,1024
2017-08-14T07:59:46.864Z,1024
2017-08-14T08:00:45.825Z,1024
2017-08-14T08:01:45.489Z,1024
2017-08-14T08:02:44.697Z,1024
2017-08-14T08:03:43.882Z,1024
2017-08-14T08:04:42.965Z,1024.1
2017-08-14T08:05:42.033Z,1024
2017-08-14T08:06:41.610Z,1024
2017-08-14T08:07:40.689Z,1024
2017-08-14T08:08:39.783Z,1024.1
2017-08-14T08:09:39.273Z,1024.1
2017-08-14T08:10:38.471Z,1024
2017-08-14T08:11:37.543Z,1024
2017-08-14T08:12:36.627Z,1024
2017-08-14T08:13:35.972Z,1024
2017-08-14T08:14:35.526Z,1024
2017-08-14T08:15:34.607Z,1024
2017-08-14T08:16:33.798Z,1024.1
2017-08-14T08:17:32.861Z,1024
2017-08-14T08:18:32.546Z,1024
2017-08-14T08:19:31.732Z,1024
2017-08-14T08:20:30.955Z,1024
2017-08-14T08:21:30.145Z,1024.1
2017-08-14T08:22:29.348Z,1024
2017-08-14T08:23:28.297Z,1024
2017-08-14T08:24:27.982Z,1024
2017-08-14T08:24:58.248Z,1024
2017-08-14T08:25:28.756Z,1024
2017-08-14T08:25:59.139Z,1024
2017-08-14T08:26:29.517Z,1024
2017-08-14T08:27:00.027Z,1024
2017-08-14T08:27:30.693Z,1024.1
2017-08-14T08:28:01.194Z,1024.1
2017-08-14T08:29:23.827Z,1024
2017-08-14T08:30:23.028Z,1024
2017-08-14T08:31:22.597Z,1024
2017-08-14T08:32:21.560Z,1024
2017-08-14T08:33:20.739Z,1024
2017-08-14T08:34:20.221Z,1024
2017-08-14T08:35:19.296Z,1024
2017-08-14T08:36:18.477Z,1024
2017-08-14T08:37:18.175Z,1024
2017-08-14T08:38:17.366Z,1024
2017-08-14T08:39:16.434Z,1024
2017-08-14T08:40:15.634Z,1024
2017-08-14T08:41:15.091Z,1023.9
2017-08-14T08:42:14.049Z,1023.9
2017-08-14T08:43:13.504Z,1023.9
2017-08-14T08:44:12.577Z,1024
2017-08-14T08:45:12.151Z,1024
2017-08-14T08:46:11.341Z,1024
2017-08-14T08:47:10.419Z,1024
2017-08-14T08:48:09.606Z,1023.9
2017-08-14T08:49:09.064Z,1023.9
2017-08-14T08:50:08.127Z,1023.9
2017-08-14T08:51:07.712Z,1023.9
2017-08-14T08:52:06.789Z,1023.9
2017-08-14T08:53:06.141Z,1024
2017-08-14T08:54:05.481Z,1024
2017-08-14T08:55:04.429Z,1023.9
2017-08-14T08:56:03.629Z,1024
2017-08-14T08:56:33.895Z,1024
2017-08-14T08:57:04.291Z,1024
2017-08-14T08:57:34.781Z,1024
2017-08-14T08:58:05.171Z,1023.9
2017-08-14T08:59:01.727Z,1023.9
2017-08-14T09:00:00.798Z,1023.9
2017-08-14T09:00:59.895Z,1023.9
2017-08-14T09:01:59.587Z,1023.9
2017-08-14T09:02:58.785Z,1023.9
2017-08-14T09:03:57.995Z,1023.9
2017-08-14T09:04:57.070Z,1023.9
2017-08-14T09:05:56.285Z,1023.9
2017-08-14T09:06:55.486Z,1023.8
2017-08-14T09:07:55.184Z,1023.9
2017-08-14T09:08:54.381Z,1023.9
2017-08-14T09:09:53.466Z,1023.9
2017-08-14T09:10:52.665Z,1023.9
2017-08-14T09:11:52.252Z,1023.9
2017-08-14T09:12:51.446Z,1023.9
2017-08-14T09:13:50.515Z,1023.9
2017-08-14T09:14:49.591Z,1023.9
2017-08-14T09:15:49.169Z,1023.9
2017-08-14T09:16:48.265Z,1023.9
2017-08-14T09:17:47.830Z,1023.9
2017-08-14T09:18:46.908Z,1023.9
2017-08-14T09:19:45.982Z,1023.9
2017-08-14T09:20:45.702Z,1023.9
2017-08-14T09:21:44.893Z,1023.9
2017-08-14T09:22:44.088Z,1023.9
2017-08-14T09:23:43.171Z,1023.9
2017-08-14T09:24:42.517Z,1023.9
2017-08-14T09:25:41.980Z,1023.8
2017-08-14T09:26:41.054Z,1023.9
2017-08-14T09:27:40.633Z,1023.8
2017-08-14T09:28:39.700Z,1023.8
2017-08-14T09:29:38.774Z,1023.8
2017-08-14T09:30:38.367Z,1023.7
2017-08-14T09:31:37.437Z,1023.8
2017-08-14T09:32:07.839Z,1023.8
2017-08-14T09:32:38.345Z,1023.8
2017-08-14T09:33:08.738Z,1023.8
2017-08-14T09:33:39.254Z,1023.8
2017-08-14T09:34:09.641Z,1023.8
2017-08-14T09:34:40.033Z,1023.8
2017-08-14T09:35:10.299Z,1023.8
2017-08-14T09:35:40.802Z,1023.8
2017-08-14T09:36:33.960Z,1023.7
2017-08-14T09:38:32.428Z,1023.7
2017-08-14T09:39:31.894Z,1023.8
2017-08-14T09:40:30.852Z,1023.7
2017-08-14T09:41:30.422Z,1023.7
2017-08-14T09:42:29.598Z,1023.7
2017-08-14T09:43:28.691Z,1023.6
2017-08-14T09:44:28.399Z,1023.7
2017-08-14T09:45:27.600Z,1023.7
2017-08-14T09:46:26.787Z,1023.7
2017-08-14T09:47:26.244Z,1023.7
2017-08-14T09:48:25.196Z,1023.7
2017-08-14T09:49:24.406Z,1023.8
2017-08-14T09:50:24.106Z,1023.7
2017-08-14T09:51:23.310Z,1023.7
2017-08-14T09:51:53.703Z,1023.7
2017-08-14T09:53:21.588Z,1023.7
2017-08-14T09:54:20.811Z,1023.7
2017-08-14T09:56:19.652Z,1023.7
2017-08-14T09:57:18.734Z,1023.7
2017-08-14T09:58:18.436Z,1023.7
2017-08-14T09:59:17.521Z,1023.7
2017-08-14T10:00:16.986Z,1023.7
2017-08-14T10:01:16.183Z,1023.7
2017-08-14T10:02:15.381Z,1023.8
2017-08-14T10:03:14.852Z,1023.8
2017-08-14T10:03:45.249Z,1023.8
2017-08-14T10:04:15.761Z,1023.8
2017-08-14T10:04:46.034Z,1023.8
2017-08-14T10:05:16.416Z,1023.7
2017-08-14T10:05:46.809Z,1023.7
2017-08-14T10:07:11.669Z,1023.7
2017-08-14T10:08:11.131Z,1023.7
2017-08-14T10:09:10.210Z,1023.7
2017-08-14T10:10:09.908Z,1023.7
2017-08-14T10:11:09.262Z,1023.7
2017-08-14T10:12:08.477Z,1023.7
2017-08-14T10:13:07.558Z,1023.7
2017-08-14T10:14:06.904Z,1023.7
2017-08-14T10:15:06.108Z,1023.7
2017-08-14T10:16:05.469Z,1023.7
2017-08-14T10:17:04.940Z,1023.7
2017-08-14T10:18:04.018Z,1023.7
2017-08-14T10:19:03.501Z,1023.7
2017-08-14T10:20:02.716Z,1023.7
2017-08-14T10:21:02.172Z,1023.7
2017-08-14T10:22:01.361Z,1023.7
2017-08-14T10:23:00.811Z,1023.6
2017-08-14T10:23:59.892Z,1023.6
2017-08-14T10:24:59.041Z,1023.6
2017-08-14T10:25:58.732Z,1023.6
2017-08-14T10:26:57.915Z,1023.6
2017-08-14T10:27:57.111Z,1023.6
2017-08-14T10:29:55.703Z,1023.6
2017-08-14T10:30:54.899Z,1023.6
2017-08-14T10:31:54.479Z,1023.6
2017-08-14T10:32:53.668Z,1023.7
2017-08-14T10:33:52.860Z,1023.7
2017-08-14T10:34:52.446Z,1023.6
2017-08-14T10:35:51.511Z,1023.5
2017-08-14T10:36:51.238Z,1023.6
2017-08-14T10:37:50.202Z,1023.6
2017-08-14T10:38:49.767Z,1023.6
2017-08-14T10:39:48.845Z,1023.5
2017-08-14T10:40:48.535Z,1023.5
2017-08-14T10:41:47.614Z,1023.5
2017-08-14T10:42:46.813Z,1023.5
2017-08-14T10:43:46.509Z,1023.5
2017-08-14T10:44:45.699Z,1023.5
2017-08-14T10:45:16.089Z,1023.5
2017-08-14T10:45:46.486Z,1023.4
2017-08-14T10:46:16.984Z,1023.4
2017-08-14T10:47:43.747Z,1023.5
2017-08-14T10:48:42.835Z,1023.6
2017-08-14T10:49:42.310Z,1023.6
2017-08-14T10:50:41.503Z,1023.5
2017-08-14T10:51:41.087Z,1023.5
2017-08-14T10:52:40.327Z,1023.5
2017-08-14T10:53:39.423Z,1023.4
2017-08-14T10:54:39.002Z,1023.5
2017-08-14T10:55:38.197Z,1023.5
2017-08-14T10:56:08.580Z,1023.5
2017-08-14T10:56:38.965Z,1023.4
2017-08-14T10:57:09.348Z,1023.4
2017-08-14T10:57:39.861Z,1023.5
2017-08-14T10:58:35.917Z,1023.4
2017-08-14T10:59:35.519Z,1023.6
2017-08-14T11:00:34.716Z,1023.5
2017-08-14T11:01:33.906Z,1023.5
2017-08-14T11:02:33.647Z,1023.4
2017-08-14T11:03:32.863Z,1023.4
2017-08-14T11:04:32.049Z,1023.4
2017-08-14T11:05:31.622Z,1023.4
2017-08-14T11:06:30.690Z,1023.4
2017-08-14T11:07:30.374Z,1023.4
2017-08-14T11:08:29.322Z,1023.4
2017-08-14T11:09:28.903Z,1023.3
2017-08-14T11:10:28.371Z,1023.4
2017-08-14T11:11:27.628Z,1023.4
2017-08-14T11:12:26.692Z,1023.4
2017-08-14T11:13:26.391Z,1023.4
2017-08-14T11:14:25.490Z,1023.4
2017-08-14T11:16:24.085Z,1023.3
2017-08-14T11:17:23.671Z,1023.3
2017-08-14T11:18:23.113Z,1023.3
2017-08-14T11:19:22.200Z,1023.4
2017-08-14T11:20:21.394Z,1023.3
2017-08-14T11:21:21.048Z,1023.3
2017-08-14T11:22:20.131Z,1023.3
2017-08-14T11:23:19.712Z,1023.3
2017-08-14T11:24:18.899Z,1023.3
2017-08-14T11:25:18.085Z,1023.4
2017-08-14T11:26:17.554Z,1023.3
2017-08-14T11:27:16.772Z,1023.3
2017-08-14T11:28:16.335Z,1023.3
2017-08-14T11:29:15.801Z,1023.4
2017-08-14T11:30:15.009Z,1023.4
2017-08-14T11:31:14.203Z,1023.4
2017-08-14T11:32:13.789Z,1023.3
2017-08-14T11:33:12.984Z,1023.3
2017-08-14T11:35:12.067Z,1023.3
2017-08-14T11:36:11.130Z,1023.3
2017-08-14T11:37:10.594Z,1023.3
2017-08-14T11:38:09.788Z,1023.3
2017-08-14T11:39:09.375Z,1023.3
2017-08-14T11:40:08.725Z,1023.3
2017-08-14T11:41:08.185Z,1023.3
2017-08-14T11:42:07.386Z,1023.3
2017-08-14T11:43:06.594Z,1023.3
2017-08-14T11:44:06.293Z,1023.2
2017-08-14T11:45:05.496Z,1023.3
2017-08-14T11:46:04.558Z,1023.3
2017-08-14T11:47:04.137Z,1023.2
2017-08-14T11:48:03.336Z,1023.3
2017-08-14T11:49:03.036Z,1023.2
2017-08-14T11:50:02.234Z,1023.3
2017-08-14T11:51:01.817Z,1023.2
2017-08-14T11:52:00.777Z,1023.1
2017-08-14T11:52:31.175Z,1023.1
2017-08-14T11:53:01.565Z,1023.2
2017-08-14T11:53:32.082Z,1023.2
2017-08-14T11:54:02.598Z,1023.2
2017-08-14T11:54:33.093Z,1023.2
2017-08-14T11:55:58.464Z,1023.2
2017-08-14T11:56:57.654Z,1023.2
2017-08-14T11:57:57.341Z,1023.2
2017-08-14T11:58:56.431Z,1023.2